createdAt,value
2018-09-18T00:01:06.920Z,0.80
2018-09-18T00:03:41.726Z,0.90
2018-09-18T00:06:16.493Z,0.93
2018-09-18T00:08:51.522Z,0.80
2018-09-18T00:11:26.367Z,0.80
2018-09-18T00:14:01.271Z,0.90
2018-09-18T00:16:36.155Z,1.00
2018-09-18T00:19:10.918Z,1.10
2018-09-18T00:21:46.026Z,0.80
2018-09-18T00:24:21.169Z,0.80
2018-09-18T00:26:56.076Z,1.37
2018-09-18T00:29:30.890Z,0.90
2018-09-18T00:32:06.489Z,0.70
2018-09-18T00:34:41.497Z,0.70
2018-09-18T00:37:16.582Z,0.70
2018-09-18T00:39:51.969Z,0.93
2018-09-18T00:42:26.745Z,0.90
2018-09-18T00:45:01.781Z,0.80
2018-09-18T00:47:36.918Z,1.00
2018-09-18T00:50:11.943Z,1.07
2018-09-18T00:52:46.808Z,0.90
2018-09-18T00:55:21.686Z,0.80
2018-09-18T00:57:56.491Z,0.93
2018-09-18T01:00:31.272Z,0.90
2018-09-18T01:03:06.326Z,0.90
2018-09-18T01:05:41.204Z,0.70
2018-09-18T01:08:15.969Z,0.90
2018-09-18T01:10:51.388Z,1.13
2018-09-18T01:13:26.466Z,0.90
2018-09-18T01:16:01.558Z,0.90
2018-09-18T01:18:41.284Z,1.00
2018-09-18T01:21:16.025Z,0.97
2018-09-18T01:23:50.899Z,0.80
2018-09-18T01:26:25.747Z,0.80
2018-09-18T01:29:00.559Z,0.93
2018-09-18T01:31:35.480Z,0.90
2018-09-18T01:34:10.276Z,0.90
2018-09-18T01:36:45.565Z,0.90
2018-09-18T01:39:20.601Z,0.90
2018-09-18T01:41:55.449Z,1.10
2018-09-18T01:44:30.519Z,1.07
2018-09-18T01:47:05.376Z,0.90
2018-09-18T01:49:40.389Z,0.90
2018-09-18T01:52:15.418Z,1.10
2018-09-18T01:54:50.108Z,1.00
2018-09-18T01:57:25.148Z,1.00
2018-09-18T02:00:00.027Z,0.97
2018-09-18T02:02:40.797Z,1.17
2018-09-18T02:05:15.885Z,0.97
2018-09-18T02:07:50.928Z,1.23
2018-09-18T02:10:26.147Z,0.83
2018-09-18T02:13:01.218Z,1.00
2018-09-18T02:15:36.275Z,0.97
2018-09-18T02:18:11.600Z,0.80
2018-09-18T02:20:46.719Z,0.80
2018-09-18T02:23:21.757Z,1.33
2018-09-18T02:25:56.576Z,0.83
2018-09-18T02:28:31.397Z,1.00
2018-09-18T02:31:06.589Z,0.83
2018-09-18T02:33:41.427Z,0.90
2018-09-18T02:36:16.303Z,1.13
2018-09-18T02:38:51.406Z,0.80
2018-09-18T02:41:26.242Z,0.80
2018-09-18T02:44:01.159Z,0.80
2018-09-18T02:46:36.077Z,1.10
2018-09-18T02:49:10.731Z,0.87
2018-09-18T02:51:46.144Z,0.80
2018-09-18T02:54:20.948Z,1.10
2018-09-18T02:56:55.720Z,1.00
2018-09-18T02:59:30.532Z,0.80
2018-09-18T03:02:05.305Z,1.00
2018-09-18T03:04:40.235Z,0.60
2018-09-18T03:07:15.090Z,1.40
2018-09-18T03:09:49.873Z,0.90
2018-09-18T03:12:24.892Z,0.93
2018-09-18T03:14:59.735Z,1.00
2018-09-18T03:17:34.517Z,0.90
2018-09-18T03:20:09.529Z,1.37
2018-09-18T03:22:44.538Z,0.80
2018-09-18T03:25:19.434Z,0.90
2018-09-18T03:27:54.556Z,1.00
2018-09-18T03:30:29.636Z,0.87
2018-09-18T03:33:04.708Z,1.33
2018-09-18T03:35:40.100Z,0.90
2018-09-18T03:38:14.875Z,1.10
2018-09-18T03:40:49.761Z,1.10
2018-09-18T03:43:25.737Z,0.73
2018-09-18T03:46:00.528Z,1.10
2018-09-18T03:48:35.562Z,1.37
2018-09-18T03:51:10.605Z,0.83
2018-09-18T03:53:45.664Z,0.70
2018-09-18T03:56:20.844Z,2.10
2018-09-18T03:58:56.000Z,0.90
2018-09-18T04:01:31.109Z,0.70
2018-09-18T04:04:05.944Z,0.60
2018-09-18T04:06:40.744Z,0.77
2018-09-18T04:09:15.497Z,1.00
2018-09-18T04:11:50.519Z,0.80
2018-09-18T04:14:25.610Z,1.13
2018-09-18T04:17:00.754Z,0.90
2018-09-18T04:19:35.878Z,1.10
2018-09-18T04:22:10.965Z,1.00
2018-09-18T04:24:46.104Z,0.90
2018-09-18T04:27:21.133Z,1.10
2018-09-18T04:29:55.925Z,0.70
2018-09-18T04:32:30.945Z,1.00
2018-09-18T04:35:06.030Z,0.90
2018-09-18T04:37:41.069Z,1.10
2018-09-18T04:40:15.865Z,1.33
2018-09-18T04:42:50.664Z,0.90
2018-09-18T04:45:25.641Z,0.90
2018-09-18T04:48:00.872Z,1.00
2018-09-18T04:50:35.888Z,0.80
2018-09-18T04:53:10.787Z,1.10
2018-09-18T04:55:45.862Z,1.00
2018-09-18T04:58:21.002Z,0.80
2018-09-18T05:01:03.094Z,1.03
2018-09-18T05:03:37.884Z,0.80
2018-09-18T05:06:12.937Z,1.30
2018-09-18T05:08:48.072Z,1.00
2018-09-18T05:11:23.082Z,0.70
2018-09-18T05:13:57.935Z,0.90
2018-09-18T05:16:33.597Z,0.80
2018-09-18T05:19:08.506Z,0.90
2018-09-18T05:21:43.512Z,1.00
2018-09-18T05:24:18.430Z,0.90
2018-09-18T05:26:53.203Z,0.77
2018-09-18T05:29:28.240Z,1.10
2018-09-18T05:32:03.104Z,0.80
2018-09-18T05:34:38.105Z,0.80
2018-09-18T05:37:13.166Z,0.90
2018-09-18T05:39:48.003Z,0.73
2018-09-18T05:42:22.873Z,0.80
2018-09-18T05:44:57.701Z,0.93
2018-09-18T05:47:32.469Z,0.97
2018-09-18T05:50:07.251Z,0.77
2018-09-18T05:52:42.067Z,0.93
2018-09-18T05:55:16.909Z,0.97
2018-09-18T05:57:51.801Z,1.13
2018-09-18T06:00:26.757Z,0.80
2018-09-18T06:03:01.745Z,1.43
2018-09-18T06:05:36.804Z,0.87
2018-09-18T06:08:11.619Z,0.83
2018-09-18T06:10:46.642Z,1.00
2018-09-18T06:13:21.537Z,0.90
2018-09-18T06:15:56.755Z,0.93
2018-09-18T06:18:31.573Z,1.10
2018-09-18T06:21:06.605Z,0.97
2018-09-18T06:23:41.408Z,1.10
2018-09-18T06:26:16.282Z,0.90
2018-09-18T06:28:51.620Z,0.90
2018-09-18T06:31:26.373Z,1.43
2018-09-18T06:34:01.414Z,0.70
2018-09-18T06:36:36.456Z,1.40
2018-09-18T06:39:12.172Z,1.53
2018-09-18T06:41:46.898Z,1.00
2018-09-18T06:44:21.936Z,1.00
2018-09-18T06:46:57.015Z,1.10
2018-09-18T06:49:31.906Z,1.13
2018-09-18T06:52:06.704Z,0.90
2018-09-18T06:54:41.676Z,0.87
2018-09-18T06:57:16.513Z,0.93
2018-09-18T06:59:51.312Z,0.87
2018-09-18T07:02:26.094Z,0.80
2018-09-18T07:05:00.871Z,1.00
2018-09-18T07:07:35.533Z,0.87
2018-09-18T07:10:10.648Z,0.80
2018-09-18T07:12:45.705Z,0.97
2018-09-18T07:15:20.926Z,0.93
2018-09-18T07:17:55.767Z,0.83
2018-09-18T07:20:31.031Z,1.30
2018-09-18T07:23:06.035Z,1.00
2018-09-18T07:25:40.835Z,1.43
2018-09-18T07:28:16.239Z,0.90
2018-09-18T07:30:50.989Z,1.10
2018-09-18T07:33:25.771Z,1.00
2018-09-18T07:36:00.785Z,1.00
2018-09-18T07:38:35.863Z,0.90
2018-09-18T07:41:10.978Z,0.80
2018-09-18T07:43:46.033Z,0.87
2018-09-18T07:46:20.957Z,1.10
2018-09-18T07:49:00.188Z,0.80
2018-09-18T07:51:36.019Z,1.10
2018-09-18T07:54:10.820Z,0.90
2018-09-18T07:56:45.822Z,0.90
2018-09-18T07:59:20.732Z,0.80
2018-09-18T08:01:55.761Z,1.10
2018-09-18T08:04:30.858Z,0.90
2018-09-18T08:07:07.149Z,0.77
2018-09-18T08:09:42.388Z,0.90
2018-09-18T08:12:17.553Z,1.03
2018-09-18T08:14:52.540Z,0.80
2018-09-18T08:17:27.905Z,0.97
2018-09-18T08:20:02.693Z,1.03
2018-09-18T08:22:37.684Z,0.90
2018-09-18T08:25:12.541Z,0.80
2018-09-18T08:27:47.577Z,0.93
2018-09-18T08:30:22.367Z,1.20
2018-09-18T08:32:57.488Z,0.70
2018-09-18T08:35:32.563Z,0.90
2018-09-18T08:38:07.713Z,1.00
2018-09-18T08:40:42.612Z,0.83
2018-09-18T08:43:17.381Z,0.93
2018-09-18T08:45:52.665Z,2.10
2018-09-18T08:48:29.511Z,1.17
2018-09-18T08:51:04.489Z,0.90
2018-09-18T08:53:39.823Z,0.70
2018-09-18T08:56:15.360Z,1.13
2018-09-18T08:58:51.430Z,1.00
2018-09-18T09:01:26.767Z,2.60
2018-09-18T09:04:01.775Z,1.23
2018-09-18T09:06:36.651Z,1.27
2018-09-18T09:09:14.023Z,2.40
2018-09-18T09:11:48.949Z,1.67
2018-09-18T09:14:24.176Z,1.10
2018-09-18T09:16:59.173Z,0.97
2018-09-18T09:19:34.062Z,1.10
2018-09-18T09:22:09.081Z,0.90
2018-09-18T09:24:43.806Z,1.03
2018-09-18T09:27:18.772Z,0.80
2018-09-18T09:29:54.101Z,1.10
2018-09-18T09:32:28.897Z,0.93
2018-09-18T09:35:03.893Z,0.87
2018-09-18T09:37:38.825Z,1.10
2018-09-18T09:40:13.815Z,1.20
2018-09-18T09:42:48.975Z,1.33
2018-09-18T09:45:23.861Z,1.10
2018-09-18T09:47:59.264Z,1.20
2018-09-18T09:50:34.125Z,1.17
2018-09-18T09:53:08.980Z,1.03
2018-09-18T09:55:43.962Z,1.30
2018-09-18T09:58:19.106Z,1.20
2018-09-18T10:00:59.792Z,1.27
2018-09-18T10:03:34.685Z,1.50
2018-09-18T10:06:09.538Z,1.37
2018-09-18T10:08:44.580Z,1.17
2018-09-18T10:11:19.654Z,2.50
2018-09-18T10:13:54.686Z,1.10
2018-09-18T10:16:29.748Z,1.00
2018-09-18T10:19:04.564Z,1.30
2018-09-18T10:21:39.515Z,1.10
2018-09-18T10:24:14.356Z,1.10
2018-09-18T10:26:49.188Z,1.03
2018-09-18T10:29:24.523Z,1.17
2018-09-18T10:31:59.585Z,1.23
2018-09-18T10:34:34.568Z,0.93
2018-09-18T10:37:09.409Z,1.17
2018-09-18T10:39:44.136Z,1.30
2018-09-18T10:42:19.162Z,1.03
2018-09-18T10:44:53.904Z,1.07
2018-09-18T10:47:28.996Z,0.90
2018-09-18T10:50:04.621Z,1.10
2018-09-18T10:52:39.287Z,1.13
2018-09-18T10:55:14.039Z,0.90
2018-09-18T10:57:48.839Z,1.30
2018-09-18T11:00:23.919Z,1.07
2018-09-18T11:02:59.181Z,1.30
2018-09-18T11:05:34.413Z,1.10
2018-09-18T11:08:09.411Z,1.37
2018-09-18T11:10:44.428Z,1.63
2018-09-18T11:13:19.281Z,1.10
2018-09-18T11:15:54.649Z,1.13
2018-09-18T11:18:29.788Z,1.10
2018-09-18T11:21:04.785Z,1.30
2018-09-18T11:23:40.005Z,2.60
2018-09-18T11:26:15.031Z,1.87
2018-09-18T11:28:50.169Z,1.40
2018-09-18T11:31:25.468Z,1.50
2018-09-18T11:34:00.564Z,1.20
2018-09-18T11:36:35.563Z,1.30
2018-09-18T11:39:10.605Z,1.40
2018-09-18T11:41:45.664Z,1.50
2018-09-18T11:44:20.769Z,1.60
2018-09-18T11:46:55.682Z,1.33
2018-09-18T11:49:30.677Z,1.17
2018-09-18T11:52:05.552Z,1.57
2018-09-18T11:54:40.532Z,3.40
2018-09-18T11:57:15.484Z,1.30
2018-09-18T11:59:50.447Z,1.30
2018-09-18T12:02:25.257Z,1.33
2018-09-18T12:05:00.138Z,1.60
2018-09-18T12:07:35.065Z,1.60
2018-09-18T12:10:09.852Z,1.63
2018-09-18T12:12:44.619Z,1.63
2018-09-18T12:15:19.641Z,1.33
2018-09-18T12:17:54.589Z,1.60
2018-09-18T12:20:29.393Z,1.37
2018-09-18T12:23:04.482Z,1.30
2018-09-18T12:25:39.866Z,1.63
2018-09-18T12:28:14.890Z,1.37
2018-09-18T12:30:49.825Z,1.50
2018-09-18T12:33:24.629Z,1.77
2018-09-18T12:35:59.452Z,1.30
2018-09-18T12:38:34.445Z,1.93
2018-09-18T12:41:09.594Z,1.60
2018-09-18T12:43:44.676Z,1.77
2018-09-18T12:46:19.737Z,1.20
2018-09-18T12:48:54.611Z,1.00
2018-09-18T12:51:29.625Z,1.13
2018-09-18T12:54:04.507Z,1.80
2018-09-18T12:56:39.806Z,1.30
2018-09-18T12:59:14.928Z,1.60
2018-09-18T13:01:49.871Z,1.10
2018-09-18T13:04:24.926Z,1.37
2018-09-18T13:07:00.068Z,1.50
2018-09-18T13:09:35.051Z,1.73
2018-09-18T13:12:10.476Z,1.20
2018-09-18T13:14:45.370Z,1.67
2018-09-18T13:17:20.614Z,1.20
2018-09-18T13:19:55.385Z,1.43
2018-09-18T13:22:30.137Z,1.30
2018-09-18T13:25:05.495Z,1.57
2018-09-18T13:27:40.259Z,1.23
2018-09-18T13:30:16.106Z,1.87
2018-09-18T13:32:51.130Z,1.27
2018-09-18T13:35:25.940Z,1.47
2018-09-18T13:38:00.866Z,1.10
2018-09-18T13:40:35.855Z,1.50
2018-09-18T13:43:11.104Z,1.40
2018-09-18T13:45:45.947Z,1.60
2018-09-18T13:48:20.985Z,1.60
2018-09-18T13:50:55.772Z,1.47
2018-09-18T13:53:30.863Z,2.00
2018-09-18T13:56:05.793Z,1.20
2018-09-18T13:58:40.469Z,1.30
2018-09-18T14:01:15.538Z,2.00
2018-09-18T14:03:50.813Z,1.60
2018-09-18T14:06:25.698Z,1.50
2018-09-18T14:09:00.602Z,1.40
2018-09-18T14:11:36.306Z,1.70
2018-09-18T14:14:11.184Z,1.20
2018-09-18T14:16:46.198Z,1.60
2018-09-18T14:19:21.608Z,1.77
2018-09-18T14:21:56.448Z,2.07
2018-09-18T14:24:31.336Z,1.60
2018-09-18T14:27:06.497Z,1.10
2018-09-18T14:29:41.617Z,1.30
2018-09-18T14:32:16.679Z,1.40
2018-09-18T14:34:52.592Z,1.20
2018-09-18T14:37:27.601Z,1.67
2018-09-18T14:40:02.573Z,1.30
2018-09-18T14:42:37.588Z,1.50
2018-09-18T14:45:12.826Z,1.60
2018-09-18T14:47:47.956Z,1.73
2018-09-18T14:50:22.968Z,1.60
2018-09-18T14:52:57.794Z,1.70
2018-09-18T14:55:33.030Z,1.23
2018-09-18T14:58:07.944Z,4.30
2018-09-18T15:00:42.999Z,1.20
2018-09-18T15:03:18.047Z,1.70
2018-09-18T15:05:53.117Z,2.00
2018-09-18T15:08:28.082Z,1.40
2018-09-18T15:11:03.155Z,1.70
2018-09-18T15:13:37.979Z,1.40
2018-09-18T15:16:12.762Z,1.50
2018-09-18T15:18:47.515Z,1.47
2018-09-18T15:21:22.364Z,1.70
2018-09-18T15:23:57.684Z,1.37
2018-09-18T15:26:32.573Z,1.40
2018-09-18T15:29:07.201Z,1.37
2018-09-18T15:31:42.194Z,1.40
2018-09-18T15:34:17.109Z,1.60
2018-09-18T15:36:52.222Z,1.60
2018-09-18T15:39:27.046Z,1.37
2018-09-18T15:42:01.805Z,1.50
2018-09-18T15:44:36.572Z,1.30
2018-09-18T15:47:11.365Z,1.23
2018-09-18T15:49:46.208Z,1.30
2018-09-18T15:52:21.216Z,1.70
2018-09-18T15:54:56.096Z,1.87
2018-09-18T15:57:31.401Z,1.77
2018-09-18T16:00:06.303Z,1.73
2018-09-18T16:02:41.321Z,1.70
2018-09-18T16:05:16.371Z,1.60
2018-09-18T16:07:51.236Z,1.47
2018-09-18T16:10:26.003Z,1.47
2018-09-18T16:13:01.014Z,1.30
2018-09-18T16:15:36.358Z,1.40
2018-09-18T16:18:11.712Z,1.97
2018-09-18T16:20:46.633Z,1.27
2018-09-18T16:23:21.307Z,1.40
2018-09-18T16:25:56.081Z,1.73
2018-09-18T16:28:31.151Z,1.57
2018-09-18T16:31:06.306Z,1.97
2018-09-18T16:33:41.367Z,1.50
2018-09-18T16:36:16.212Z,1.87
2018-09-18T16:38:52.249Z,1.20
2018-09-18T16:41:26.998Z,2.07
2018-09-18T16:44:02.059Z,1.57
2018-09-18T16:46:36.874Z,1.90
2018-09-18T16:49:11.663Z,1.47
2018-09-18T16:51:46.693Z,1.40
2018-09-18T16:54:21.562Z,1.90
2018-09-18T16:56:56.810Z,1.70
2018-09-18T16:59:31.963Z,1.57
2018-09-18T17:02:06.963Z,2.10
2018-09-18T17:04:42.467Z,1.47
2018-09-18T17:07:17.293Z,1.40
2018-09-18T17:09:52.090Z,1.30
2018-09-18T17:12:26.938Z,1.83
2018-09-18T17:15:02.136Z,1.50
2018-09-18T17:17:37.228Z,1.60
2018-09-18T17:20:12.269Z,1.50
2018-09-18T17:22:47.338Z,1.80
2018-09-18T17:25:22.491Z,2.07
2018-09-18T17:27:57.544Z,1.50
2018-09-18T17:30:32.693Z,1.60
2018-09-18T17:33:07.476Z,1.40
2018-09-18T17:35:42.332Z,1.43
2018-09-18T17:38:17.293Z,1.93
2018-09-18T17:40:52.060Z,1.47
2018-09-18T17:43:26.830Z,1.60
2018-09-18T17:46:01.717Z,1.53
2018-09-18T17:48:36.783Z,1.67
2018-09-18T17:51:11.740Z,1.77
2018-09-18T17:53:47.186Z,1.67
2018-09-18T17:56:22.082Z,1.60
2018-09-18T17:58:58.138Z,1.57
2018-09-18T18:01:32.946Z,1.60
2018-09-18T18:04:08.433Z,1.57
2018-09-18T18:06:43.234Z,2.20
2018-09-18T18:09:18.775Z,2.00
2018-09-18T18:11:54.242Z,1.47
2018-09-18T18:14:29.259Z,2.13
2018-09-18T18:17:04.455Z,2.37
2018-09-18T18:19:39.612Z,1.90
2018-09-18T18:22:14.654Z,2.50
2018-09-18T18:24:50.288Z,1.80
2018-09-18T18:27:25.324Z,2.20
2018-09-18T18:30:00.407Z,1.87
2018-09-18T18:32:35.531Z,1.80
2018-09-18T18:35:10.594Z,1.63
2018-09-18T18:37:45.783Z,1.77
2018-09-18T18:40:20.834Z,1.73
2018-09-18T18:42:55.924Z,1.40
2018-09-18T18:45:30.732Z,1.53
2018-09-18T18:48:05.955Z,1.70
2018-09-18T18:50:40.765Z,5.57
2018-09-18T18:53:15.617Z,2.93
2018-09-18T18:55:50.798Z,1.70
2018-09-18T18:58:25.649Z,1.53
2018-09-18T19:01:00.854Z,1.73
2018-09-18T19:03:35.853Z,1.80
2018-09-18T19:06:11.028Z,1.90
2018-09-18T19:08:45.997Z,1.97
2018-09-18T19:11:20.921Z,1.60
2018-09-18T19:13:55.953Z,1.80
2018-09-18T19:16:31.039Z,2.60
2018-09-18T19:19:06.307Z,1.63
2018-09-18T19:21:41.220Z,2.27
2018-09-18T19:24:16.225Z,1.60
2018-09-18T19:26:51.104Z,2.90
2018-09-18T19:29:26.028Z,2.70
2018-09-18T19:32:00.913Z,1.93
2018-09-18T19:34:35.719Z,4.47
2018-09-18T19:37:10.473Z,3.53
2018-09-18T19:39:45.528Z,1.73
2018-09-18T19:42:20.424Z,1.70
2018-09-18T19:44:55.443Z,2.30
2018-09-18T19:47:30.390Z,1.60
2018-09-18T19:50:09.174Z,1.90
2018-09-18T19:52:46.194Z,3.53
2018-09-18T19:55:21.005Z,1.77
2018-09-18T19:57:56.050Z,1.53
2018-09-18T20:00:31.147Z,2.67
2018-09-18T20:03:05.991Z,1.70
2018-09-18T20:05:40.616Z,1.60
2018-09-18T20:08:15.237Z,1.70
2018-09-18T20:10:50.561Z,2.03
2018-09-18T20:13:25.736Z,1.63
2018-09-18T20:16:00.578Z,2.90
2018-09-18T20:18:35.515Z,1.80
2018-09-18T20:21:10.336Z,3.27
2018-09-18T20:23:45.410Z,3.43
2018-09-18T20:26:20.683Z,2.00
2018-09-18T20:28:55.718Z,1.60
2018-09-18T20:31:30.722Z,2.00
2018-09-18T20:34:06.113Z,2.17
2018-09-18T20:36:41.257Z,2.30
2018-09-18T20:39:16.053Z,1.77
2018-09-18T20:41:51.143Z,1.77
2018-09-18T20:44:26.104Z,2.63
2018-09-18T20:47:01.200Z,1.70
2018-09-18T20:49:36.020Z,2.77
2018-09-18T20:52:11.396Z,3.10
2018-09-18T20:54:46.256Z,6.40
2018-09-18T20:57:21.313Z,2.20
2018-09-18T20:59:56.196Z,1.70
2018-09-18T21:02:31.217Z,1.87
2018-09-18T21:05:06.262Z,2.30
2018-09-18T21:07:41.142Z,2.37
2018-09-18T21:10:15.920Z,2.40
2018-09-18T21:12:50.811Z,2.23
2018-09-18T21:15:25.448Z,2.07
2018-09-18T21:18:00.774Z,2.57
2018-09-18T21:20:35.761Z,1.73
2018-09-18T21:23:10.635Z,1.67
2018-09-18T21:26:17.508Z,1.40
2018-09-18T21:28:52.667Z,3.77
2018-09-18T21:31:27.792Z,2.60
2018-09-18T21:34:02.596Z,2.10
2018-09-18T21:36:37.489Z,2.23
2018-09-18T21:39:12.314Z,1.70
2018-09-18T21:41:47.081Z,1.83
2018-09-18T21:44:22.107Z,2.30
2018-09-18T21:46:56.883Z,1.60
2018-09-18T21:49:31.891Z,1.67
2018-09-18T21:52:06.957Z,3.97
2018-09-18T21:54:41.817Z,2.40
2018-09-18T21:57:16.821Z,2.00
2018-09-18T21:59:51.656Z,1.67
2018-09-18T22:02:27.091Z,2.33
2018-09-18T22:05:02.309Z,2.07
2018-09-18T22:07:37.334Z,4.10
2018-09-18T22:10:12.166Z,1.60
2018-09-18T22:12:47.037Z,1.77
2018-09-18T22:15:22.000Z,3.77
2018-09-18T22:17:57.140Z,1.20
2018-09-18T22:20:32.061Z,2.33
2018-09-18T22:23:07.242Z,3.50
2018-09-18T22:25:42.254Z,2.27
2018-09-18T22:28:17.393Z,2.60
2018-09-18T22:30:52.286Z,1.40
2018-09-18T22:33:27.362Z,1.50
2018-09-18T22:36:02.787Z,1.70
2018-09-18T22:38:37.857Z,3.63
2018-09-18T22:41:13.015Z,2.10
2018-09-18T22:43:47.849Z,1.90
2018-09-18T22:46:22.476Z,2.93
2018-09-18T22:48:57.510Z,2.93
2018-09-18T22:51:32.968Z,2.67
2018-09-18T22:54:08.172Z,3.03
2018-09-18T22:56:43.205Z,1.97
2018-09-18T22:59:18.315Z,1.70
2018-09-18T23:01:53.409Z,2.57
2018-09-18T23:04:28.489Z,2.10
2018-09-18T23:07:03.532Z,2.07
2018-09-18T23:09:38.577Z,1.53
2018-09-18T23:12:13.396Z,3.07
2018-09-18T23:14:48.306Z,3.00
2018-09-18T23:17:23.705Z,4.50
2018-09-18T23:19:58.516Z,2.70
2018-09-18T23:22:33.772Z,2.50
2018-09-18T23:25:08.917Z,2.10
2018-09-18T23:27:43.797Z,1.73
2018-09-18T23:30:18.818Z,1.53
2018-09-18T23:32:53.719Z,2.00
2018-09-18T23:35:28.494Z,2.60
2018-09-18T23:38:03.527Z,5.73
2018-09-18T23:40:38.593Z,5.27
2018-09-18T23:43:13.664Z,2.80
2018-09-18T23:45:48.774Z,2.50
2018-09-18T23:48:23.633Z,2.30
2018-09-18T23:50:58.881Z,3.23
2018-09-18T23:53:33.857Z,5.30
2018-09-18T23:56:08.886Z,5.83
2018-09-18T23:58:43.726Z,2.23
